createdAt,value
2022-10-20T00:01:10.643Z,0.62
2022-10-20T00:03:37.688Z,0.71
2022-10-20T00:06:25.378Z,0.87
2022-10-20T00:08:53.553Z,0.95
2022-10-20T00:11:21.905Z,0.89
2022-10-20T00:13:51.732Z,0.77
2022-10-20T00:16:19.085Z,0.90
2022-10-20T00:18:45.704Z,0.95
2022-10-20T00:21:21.290Z,1.00
2022-10-20T00:23:50.236Z,0.96
2022-10-20T00:26:25.780Z,1.13
2022-10-20T00:28:55.775Z,1.02
2022-10-20T00:31:24.188Z,1.02
2022-10-20T00:33:50.978Z,1.06
2022-10-20T00:36:19.860Z,1.11
2022-10-20T00:38:47.218Z,0.91
2022-10-20T00:41:16.489Z,0.96
2022-10-20T00:44:03.321Z,1.07
2022-10-20T00:46:39.062Z,1.06
2022-10-20T00:49:15.877Z,0.63
2022-10-20T00:51:43.162Z,0.49
2022-10-20T00:54:14.445Z,0.64
2022-10-20T00:56:44.371Z,0.82
2022-10-20T00:59:14.595Z,0.79
2022-10-20T01:01:42.675Z,0.96
2022-10-20T01:04:09.748Z,0.96
2022-10-20T01:06:36.429Z,0.93
2022-10-20T01:09:03.660Z,1.13
2022-10-20T01:11:47.220Z,0.68
2022-10-20T01:14:16.733Z,0.46
2022-10-20T01:17:00.148Z,0.41
2022-10-20T01:19:38.480Z,0.49
2022-10-20T01:22:17.421Z,0.36
2022-10-20T01:24:59.452Z,0.46
2022-10-20T01:27:39.257Z,0.80
2022-10-20T01:30:08.056Z,0.50
2022-10-20T01:33:07.693Z,0.25
2022-10-20T01:35:59.784Z,0.34
2022-10-20T01:38:36.342Z,0.17
2022-10-20T01:41:09.131Z,0.14
2022-10-20T01:43:39.476Z,0.33
2022-10-20T01:46:09.820Z,0.30
2022-10-20T01:48:38.756Z,0.21
2022-10-20T01:51:05.423Z,0.34
2022-10-20T01:53:33.327Z,0.47
2022-10-20T01:56:02.071Z,0.47
2022-10-20T01:58:28.616Z,0.16
2022-10-20T02:01:00.217Z,0.32
2022-10-20T02:03:29.441Z,-0.01
2022-10-20T02:06:07.879Z,-0.20
2022-10-20T02:08:49.471Z,-0.20
2022-10-20T02:11:45.179Z,-0.32
2022-10-20T02:14:15.758Z,-0.39
2022-10-20T02:16:49.593Z,-0.15
2022-10-20T02:19:20.964Z,-0.13
2022-10-20T02:21:48.859Z,-0.46
2022-10-20T02:24:17.632Z,-0.64
2022-10-20T02:26:44.654Z,-0.53
2022-10-20T02:29:24.947Z,-0.60
2022-10-20T02:31:52.111Z,-0.70
2022-10-20T02:34:18.696Z,-0.52
2022-10-20T02:36:45.481Z,-0.40
2022-10-20T02:39:12.681Z,-0.55
2022-10-20T02:41:39.308Z,-0.55
2022-10-20T02:44:07.931Z,-0.49
2022-10-20T02:46:34.528Z,-0.55
2022-10-20T02:49:01.147Z,-0.60
2022-10-20T02:51:27.703Z,-0.63
2022-10-20T02:53:54.936Z,-0.45
2022-10-20T02:56:26.461Z,-0.66
2022-10-20T02:58:57.525Z,-0.82
2022-10-20T03:01:25.393Z,-0.61
2022-10-20T03:03:52.076Z,-0.59
2022-10-20T03:06:18.647Z,-0.73
2022-10-20T03:08:45.285Z,-0.89
2022-10-20T03:11:14.060Z,-0.65
2022-10-20T03:13:41.025Z,-0.73
2022-10-20T03:16:10.296Z,-0.85
2022-10-20T03:18:36.855Z,-0.90
2022-10-20T03:21:03.848Z,-0.83
2022-10-20T03:23:30.513Z,-1.05
2022-10-20T03:26:08.256Z,-1.21
2022-10-20T03:28:35.011Z,-1.01
2022-10-20T03:31:02.029Z,-0.91
2022-10-20T03:33:28.644Z,-0.97
2022-10-20T03:35:55.216Z,-0.91
2022-10-20T03:38:24.156Z,-0.74
2022-10-20T03:40:51.826Z,-0.91
2022-10-20T03:43:20.623Z,-0.86
2022-10-20T03:45:47.311Z,-0.88
2022-10-20T03:48:13.927Z,-0.80
2022-10-20T03:50:41.948Z,-0.95
2022-10-20T03:53:13.831Z,-0.82
2022-10-20T03:55:40.436Z,-0.57
2022-10-20T03:58:07.074Z,-0.41
2022-10-20T04:00:34.134Z,-0.37
2022-10-20T04:03:00.771Z,-0.35
2022-10-20T04:05:29.367Z,-0.32
2022-10-20T04:07:56.005Z,-0.61
2022-10-20T04:10:22.590Z,-0.60
2022-10-20T04:12:49.249Z,-0.62
2022-10-20T04:15:18.549Z,-0.58
2022-10-20T04:17:45.299Z,-0.67
2022-10-20T04:20:11.957Z,-0.63
2022-10-20T04:22:39.097Z,-0.63
2022-10-20T04:25:06.207Z,-0.60
2022-10-20T04:27:33.791Z,-0.83
2022-10-20T04:30:00.506Z,-0.93
2022-10-20T04:32:27.127Z,-0.84
2022-10-20T04:34:53.727Z,-0.75
2022-10-20T04:37:20.366Z,-0.98
2022-10-20T04:39:47.243Z,-1.12
2022-10-20T04:42:13.892Z,-1.14
2022-10-20T04:44:40.525Z,-1.01
2022-10-20T04:47:07.079Z,-0.91
2022-10-20T04:49:33.680Z,-1.00
2022-10-20T04:52:01.305Z,-1.13
2022-10-20T04:54:29.143Z,-1.10
2022-10-20T04:56:56.503Z,-1.00
2022-10-20T04:59:23.177Z,-0.97
2022-10-20T05:01:50.393Z,-0.88
2022-10-20T05:04:21.944Z,-0.86
2022-10-20T05:06:49.957Z,-0.83
2022-10-20T05:09:18.780Z,-0.64
2022-10-20T05:11:45.577Z,-0.51
2022-10-20T05:14:14.236Z,-0.40
2022-10-20T05:16:40.840Z,-0.54
2022-10-20T05:19:07.568Z,-0.52
2022-10-20T05:21:34.340Z,-0.60
2022-10-20T05:24:03.059Z,-0.79
2022-10-20T05:26:35.073Z,-1.01
2022-10-20T05:29:04.467Z,-1.17
2022-10-20T05:31:31.426Z,-1.05
2022-10-20T05:33:59.353Z,-1.26
2022-10-20T05:36:27.420Z,-1.30
2022-10-20T05:38:57.469Z,-1.21
2022-10-20T05:41:28.805Z,-1.06
2022-10-20T05:44:00.857Z,-1.26
2022-10-20T05:46:30.453Z,-1.59
2022-10-20T05:48:59.218Z,-1.66
2022-10-20T05:51:28.981Z,-1.55
2022-10-20T05:53:57.013Z,-1.52
2022-10-20T05:56:25.635Z,-1.50
2022-10-20T05:58:52.212Z,-1.33
2022-10-20T06:01:23.912Z,-1.15
2022-10-20T06:03:52.763Z,-1.25
2022-10-20T06:06:21.929Z,-1.75
2022-10-20T06:08:48.924Z,-1.95
2022-10-20T06:11:15.875Z,-1.77
2022-10-20T06:13:48.470Z,-1.49
2022-10-20T06:16:21.577Z,-1.52
2022-10-20T06:18:48.697Z,-1.43
2022-10-20T06:21:18.266Z,-1.60
2022-10-20T06:23:45.579Z,-1.51
2022-10-20T06:26:14.875Z,-1.64
2022-10-20T06:28:41.664Z,-1.84
2022-10-20T06:31:30.416Z,-1.93
2022-10-20T06:34:00.852Z,-1.71
2022-10-20T06:36:28.285Z,-1.66
2022-10-20T06:38:56.713Z,-1.64
2022-10-20T06:41:24.493Z,-1.42
2022-10-20T06:43:57.892Z,-1.15
2022-10-20T06:46:27.775Z,-1.03
2022-10-20T06:48:58.626Z,-1.11
2022-10-20T06:51:26.176Z,-1.10
2022-10-20T06:53:53.859Z,-1.00
2022-10-20T06:56:23.844Z,-1.02
2022-10-20T06:58:52.612Z,-0.92
2022-10-20T07:01:25.238Z,-0.65
2022-10-20T07:03:54.859Z,-0.47
2022-10-20T07:06:24.436Z,-0.39
2022-10-20T07:08:53.844Z,-0.51
2022-10-20T07:11:26.065Z,-0.56
2022-10-20T07:13:54.938Z,-0.62
2022-10-20T07:16:26.198Z,-0.44
2022-10-20T07:18:52.913Z,-0.20
2022-10-20T07:21:22.445Z,-0.15
2022-10-20T07:23:50.712Z,-0.05
2022-10-20T07:26:38.092Z,0.13
2022-10-20T07:29:05.180Z,0.09
2022-10-20T07:31:36.413Z,0.16
2022-10-20T07:34:23.412Z,0.37
2022-10-20T07:36:51.116Z,0.50
2022-10-20T07:39:17.755Z,0.67
2022-10-20T07:41:45.666Z,0.81
2022-10-20T07:44:12.767Z,0.92
2022-10-20T07:46:39.487Z,1.02
2022-10-20T07:49:31.430Z,1.15
2022-10-20T07:51:52.804Z,1.23
2022-10-20T07:54:20.228Z,1.34
2022-10-20T07:56:47.048Z,1.41
2022-10-20T07:59:14.298Z,1.48
2022-10-20T08:01:41.405Z,1.55
2022-10-20T08:04:08.119Z,1.63
2022-10-20T08:06:34.870Z,1.67
2022-10-20T08:09:01.659Z,1.74
2022-10-20T08:11:28.363Z,1.88
2022-10-20T08:13:57.800Z,2.03
2022-10-20T08:16:30.064Z,2.17
2022-10-20T08:21:37.538Z,2.32
2022-10-20T08:24:04.232Z,2.41
2022-10-20T08:26:30.814Z,2.54
2022-10-20T08:28:57.455Z,2.62
2022-10-20T08:31:24.145Z,2.71
2022-10-20T08:33:52.945Z,2.79
2022-10-20T08:36:20.637Z,2.91
2022-10-20T08:38:47.190Z,2.96
2022-10-20T08:41:20.299Z,2.95
2022-10-20T08:43:49.365Z,3.01
2022-10-20T08:48:49.452Z,3.23
2022-10-20T08:51:21.893Z,3.34
2022-10-20T08:53:52.407Z,3.41
2022-10-20T08:56:24.861Z,3.51
2022-10-20T08:58:52.098Z,3.63
2022-10-20T09:01:23.106Z,3.74
2022-10-20T09:03:57.653Z,3.83
2022-10-20T09:06:24.834Z,3.85
2022-10-20T09:08:52.543Z,3.97
2022-10-20T09:11:26.191Z,4.02
2022-10-20T09:13:56.153Z,4.09
2022-10-20T09:16:42.111Z,4.12
2022-10-20T09:19:23.604Z,4.17
2022-10-20T09:21:55.095Z,4.25
2022-10-20T09:24:23.028Z,4.40
2022-10-20T09:26:59.204Z,4.51
2022-10-20T09:29:39.095Z,4.65
2022-10-20T09:32:45.477Z,4.91
2022-10-20T09:35:23.094Z,4.92
2022-10-20T09:38:01.505Z,4.99
2022-10-20T09:40:30.780Z,5.07
2022-10-20T09:43:02.487Z,5.14
2022-10-20T09:45:33.026Z,5.25
2022-10-20T09:48:08.014Z,5.39
2022-10-20T09:50:40.562Z,5.45
2022-10-20T09:53:22.704Z,5.54
2022-10-20T09:55:51.078Z,5.61
2022-10-20T09:58:30.381Z,5.66
2022-10-20T10:01:13.439Z,5.71
2022-10-20T10:03:45.983Z,5.75
2022-10-20T10:06:28.276Z,5.80
2022-10-20T10:08:56.582Z,5.92
2022-10-20T10:11:35.723Z,5.99
2022-10-20T10:14:03.607Z,6.04
2022-10-20T10:16:41.665Z,6.11
2022-10-20T10:19:17.467Z,6.15
2022-10-20T10:21:47.773Z,6.22
2022-10-20T10:24:35.445Z,6.30
2022-10-20T10:27:04.432Z,6.36
2022-10-20T10:29:38.501Z,6.40
2022-10-20T10:32:15.716Z,6.46
2022-10-20T10:34:58.912Z,6.51
2022-10-20T10:37:26.983Z,6.57
2022-10-20T10:39:55.473Z,6.67
2022-10-20T10:42:39.445Z,6.74
2022-10-20T10:45:43.655Z,6.76
2022-10-20T10:48:27.293Z,6.83
2022-10-20T10:51:08.912Z,6.92
2022-10-20T10:54:11.692Z,7.02
2022-10-20T10:57:08.041Z,7.14
2022-10-20T10:59:42.713Z,7.20
2022-10-20T11:02:24.437Z,7.28
2022-10-20T11:05:00.134Z,7.34
2022-10-20T11:08:11.341Z,7.41
2022-10-20T11:11:10.136Z,7.43
2022-10-20T11:13:52.957Z,7.48
2022-10-20T11:16:40.593Z,7.51
2022-10-20T11:19:19.257Z,7.56
2022-10-20T11:22:00.280Z,7.65
2022-10-20T11:24:46.099Z,7.72
2022-10-20T11:27:39.195Z,7.72
2022-10-20T11:30:19.682Z,7.77
2022-10-20T11:33:19.092Z,7.88
2022-10-20T11:35:59.044Z,7.84
2022-10-20T11:38:25.609Z,7.90
2022-10-20T11:41:03.146Z,7.97
2022-10-20T11:43:37.363Z,7.94
2022-10-20T11:46:13.291Z,7.93
2022-10-20T11:48:49.210Z,7.96
2022-10-20T11:51:30.630Z,7.98
2022-10-20T11:54:21.552Z,8.03
2022-10-20T11:57:14.436Z,8.10
2022-10-20T12:00:04.574Z,8.15
2022-10-20T12:02:53.100Z,8.13
2022-10-20T12:05:38.287Z,8.11
2022-10-20T12:08:40.458Z,8.11
2022-10-20T12:11:18.113Z,8.06
2022-10-20T12:14:08.376Z,8.05
2022-10-20T12:17:06.416Z,8.06
2022-10-20T12:19:35.346Z,8.08
2022-10-20T12:22:13.846Z,8.06
2022-10-20T12:25:03.540Z,8.04
2022-10-20T12:27:30.785Z,7.98
2022-10-20T12:30:24.535Z,7.95
2022-10-20T12:32:58.478Z,7.87
2022-10-20T12:35:25.036Z,7.85
2022-10-20T12:37:57.660Z,7.84
2022-10-20T12:40:52.857Z,7.81
2022-10-20T12:43:26.282Z,7.77
2022-10-20T12:45:58.944Z,7.72
2022-10-20T12:48:28.363Z,7.69
2022-10-20T12:51:05.312Z,7.63
2022-10-20T12:53:33.416Z,7.56
2022-10-20T12:56:07.095Z,7.63
2022-10-20T12:59:08.325Z,7.73
2022-10-20T13:02:09.065Z,7.79
2022-10-20T13:05:06.643Z,7.82
2022-10-20T13:07:48.612Z,7.84
2022-10-20T13:10:27.250Z,7.92
2022-10-20T13:13:16.510Z,7.97
2022-10-20T13:15:45.357Z,7.98
2022-10-20T13:18:14.556Z,7.94
2022-10-20T13:20:53.633Z,7.93
2022-10-20T13:23:34.060Z,7.95
2022-10-20T13:26:17.064Z,8.03
2022-10-20T13:28:48.755Z,8.09
2022-10-20T13:31:21.033Z,8.11
2022-10-20T13:34:05.777Z,8.11
2022-10-20T13:36:59.595Z,8.13
2022-10-20T13:39:43.919Z,8.15
2022-10-20T13:42:18.938Z,8.22
2022-10-20T13:45:28.532Z,8.24
2022-10-20T13:48:23.401Z,8.26
2022-10-20T13:50:58.871Z,8.31
2022-10-20T13:53:42.385Z,8.31
2022-10-20T13:56:15.981Z,8.37
2022-10-20T13:59:01.820Z,8.44
2022-10-20T14:01:33.840Z,8.44
2022-10-20T14:04:00.445Z,8.41
2022-10-20T14:06:32.271Z,8.40
2022-10-20T14:09:14.127Z,8.35
2022-10-20T14:11:41.045Z,8.37
2022-10-20T14:14:16.560Z,8.40
2022-10-20T14:16:51.812Z,8.41
2022-10-20T14:19:22.185Z,8.42
2022-10-20T14:21:53.382Z,8.42
2022-10-20T14:24:33.216Z,8.35
2022-10-20T14:27:03.161Z,8.26
2022-10-20T14:29:33.101Z,8.19
2022-10-20T14:32:00.414Z,8.19
2022-10-20T14:34:36.613Z,8.18
2022-10-20T14:37:23.595Z,8.12
2022-10-20T14:39:50.763Z,8.07
2022-10-20T14:42:27.938Z,8.01
2022-10-20T14:44:57.585Z,8.06
2022-10-20T14:47:29.074Z,8.05
2022-10-20T14:49:55.774Z,8.02
2022-10-20T14:52:37.285Z,7.93
2022-10-20T14:55:32.208Z,7.85
2022-10-20T14:57:59.312Z,7.74
2022-10-20T15:00:36.669Z,7.75
2022-10-20T15:03:07.128Z,7.81
2022-10-20T15:05:37.215Z,7.88
2022-10-20T15:08:10.420Z,7.88
2022-10-20T15:10:38.340Z,7.84
2022-10-20T15:13:05.005Z,7.81
2022-10-20T15:15:40.437Z,7.78
2022-10-20T15:18:08.976Z,7.76
2022-10-20T15:20:37.596Z,7.77
2022-10-20T15:23:13.626Z,7.76
2022-10-20T15:26:03.276Z,7.62
2022-10-20T15:28:47.459Z,7.53
2022-10-20T15:31:13.983Z,7.44
2022-10-20T15:33:41.603Z,7.40
2022-10-20T15:36:29.805Z,7.34
2022-10-20T15:38:56.845Z,7.28
2022-10-20T15:41:31.442Z,7.19
2022-10-20T15:44:24.587Z,7.04
2022-10-20T15:46:55.682Z,6.96
2022-10-20T15:49:22.604Z,6.94
2022-10-20T15:51:50.660Z,6.90
2022-10-20T15:54:21.592Z,6.71
2022-10-20T15:56:49.440Z,6.58
2022-10-20T15:59:17.472Z,6.04
2022-10-20T16:01:44.100Z,6.18
2022-10-20T16:04:23.652Z,6.24
2022-10-20T16:06:57.784Z,6.07
2022-10-20T16:09:26.031Z,5.51
2022-10-20T16:11:52.700Z,5.61
2022-10-20T16:14:19.247Z,5.76
2022-10-20T16:16:47.897Z,5.45
2022-10-20T16:19:14.455Z,5.30
2022-10-20T16:21:41.590Z,5.51
2022-10-20T16:24:08.549Z,5.42
2022-10-20T16:26:35.260Z,5.18
2022-10-20T16:29:01.863Z,5.28
2022-10-20T16:31:29.479Z,5.34
2022-10-20T16:33:59.144Z,5.07
2022-10-20T16:36:25.760Z,5.04
2022-10-20T16:38:57.352Z,5.15
2022-10-20T16:41:24.271Z,4.67
2022-10-20T16:43:50.863Z,4.76
2022-10-20T16:46:17.489Z,4.79
2022-10-20T16:48:47.652Z,4.61
2022-10-20T16:51:15.847Z,4.83
2022-10-20T16:53:43.965Z,4.67
2022-10-20T16:56:15.167Z,4.51
2022-10-20T16:58:44.829Z,4.65
2022-10-20T17:01:13.855Z,4.38
2022-10-20T17:03:45.967Z,4.33
2022-10-20T17:06:14.484Z,4.54
2022-10-20T17:08:41.423Z,4.48
2022-10-20T17:11:13.930Z,4.61
2022-10-20T17:13:41.440Z,4.87
2022-10-20T17:16:14.249Z,4.82
2022-10-20T17:18:41.196Z,4.85
2022-10-20T17:21:10.644Z,5.05
2022-10-20T17:23:42.660Z,4.98
2022-10-20T17:26:13.614Z,5.12
2022-10-20T17:28:40.343Z,5.30
2022-10-20T17:31:08.907Z,5.16
2022-10-20T17:33:36.962Z,5.29
2022-10-20T17:36:04.263Z,5.46
2022-10-20T17:38:31.628Z,5.38
2022-10-20T17:41:10.180Z,5.45
2022-10-20T17:43:38.817Z,5.56
2022-10-20T17:46:08.892Z,5.44
2022-10-20T17:48:36.713Z,5.54
2022-10-20T17:51:14.672Z,5.66
2022-10-20T17:53:48.067Z,5.50
2022-10-20T17:56:23.274Z,5.65
2022-10-20T17:58:51.507Z,5.64
2022-10-20T18:01:26.638Z,5.62
2022-10-20T18:03:55.941Z,5.85
2022-10-20T18:06:31.210Z,5.87
2022-10-20T18:09:03.301Z,5.79
2022-10-20T18:11:32.546Z,5.96
2022-10-20T18:14:00.158Z,5.79
2022-10-20T18:16:28.869Z,5.78
2022-10-20T18:19:01.456Z,6.01
2022-10-20T18:21:29.561Z,5.82
2022-10-20T18:24:01.066Z,5.73
2022-10-20T18:26:29.411Z,5.94
2022-10-20T18:28:56.018Z,5.75
2022-10-20T18:31:24.761Z,5.81
2022-10-20T18:33:56.404Z,5.97
2022-10-20T18:36:24.555Z,5.75
2022-10-20T18:38:51.584Z,5.69
2022-10-20T18:41:21.432Z,5.83
2022-10-20T18:43:57.000Z,5.62
2022-10-20T18:46:28.803Z,5.61
2022-10-20T18:48:56.092Z,5.74
2022-10-20T18:51:23.508Z,5.55
2022-10-20T18:53:57.673Z,5.45
2022-10-20T18:56:26.821Z,5.58
2022-10-20T18:58:56.233Z,5.34
2022-10-20T19:01:28.177Z,5.31
2022-10-20T19:03:56.817Z,5.42
2022-10-20T19:06:28.080Z,5.27
2022-10-20T19:08:59.886Z,5.32
2022-10-20T19:11:29.568Z,5.44
2022-10-20T19:13:57.244Z,5.28
2022-10-20T19:16:26.285Z,5.24
2022-10-20T19:18:55.405Z,5.39
2022-10-20T19:21:23.662Z,5.22
2022-10-20T19:23:57.012Z,5.10
2022-10-20T19:26:42.260Z,5.22
2022-10-20T19:29:12.483Z,4.99
2022-10-20T19:31:48.732Z,4.94
2022-10-20T19:34:24.579Z,5.14
2022-10-20T19:36:51.342Z,5.04
2022-10-20T19:39:27.343Z,4.94
2022-10-20T19:41:55.594Z,5.13
2022-10-20T19:44:22.379Z,4.94
2022-10-20T19:46:51.765Z,4.78
2022-10-20T19:49:19.649Z,4.93
2022-10-20T19:51:46.299Z,4.84
2022-10-20T19:54:13.204Z,4.69
2022-10-20T19:56:41.203Z,4.80
2022-10-20T19:59:08.445Z,4.84
2022-10-20T20:01:36.012Z,4.64
2022-10-20T20:04:03.768Z,4.69
2022-10-20T20:06:30.632Z,4.85
2022-10-20T20:09:01.014Z,4.72
2022-10-20T20:11:30.996Z,4.83
2022-10-20T20:14:18.511Z,4.76
2022-10-20T20:16:46.383Z,4.60
2022-10-20T20:19:17.039Z,4.74
2022-10-20T20:21:43.786Z,4.44
2022-10-20T20:24:11.988Z,4.44
2022-10-20T20:26:38.642Z,4.47
2022-10-20T20:29:05.508Z,4.28
2022-10-20T20:31:32.578Z,4.38
2022-10-20T20:34:01.211Z,4.22
2022-10-20T20:36:28.819Z,3.74
2022-10-20T20:39:01.321Z,3.94
2022-10-20T20:41:30.280Z,3.80
2022-10-20T20:44:01.005Z,3.94
2022-10-20T20:46:33.203Z,4.03
2022-10-20T20:49:02.205Z,4.04
2022-10-20T20:51:34.045Z,4.23
2022-10-20T20:54:02.807Z,4.21
2022-10-20T20:56:30.322Z,4.32
2022-10-20T20:58:57.004Z,4.51
2022-10-20T21:01:28.709Z,4.38
2022-10-20T21:03:56.594Z,4.43
2022-10-20T21:06:33.114Z,4.42
2022-10-20T21:09:01.685Z,4.27
2022-10-20T21:11:28.491Z,4.42
2022-10-20T21:13:57.512Z,4.34
2022-10-20T21:16:28.430Z,4.19
2022-10-20T21:19:01.363Z,4.27
2022-10-20T21:21:30.535Z,3.81
2022-10-20T21:23:58.058Z,3.85
2022-10-20T21:26:25.531Z,3.74
2022-10-20T21:28:53.153Z,3.72
2022-10-20T21:31:24.252Z,3.92
2022-10-20T21:33:53.226Z,3.89
2022-10-20T21:36:21.676Z,3.90
2022-10-20T21:38:48.777Z,4.11
2022-10-20T21:41:20.784Z,4.07
2022-10-20T21:43:50.797Z,4.23
2022-10-20T21:46:23.607Z,4.32
2022-10-20T21:48:56.372Z,4.22
2022-10-20T21:51:25.467Z,4.34
2022-10-20T21:54:04.335Z,4.21
2022-10-20T21:56:36.233Z,4.08
2022-10-20T21:59:06.513Z,4.16
2022-10-20T22:01:33.470Z,3.89
2022-10-20T22:04:00.271Z,3.95
2022-10-20T22:06:27.933Z,4.00
2022-10-20T22:08:57.794Z,3.86
2022-10-20T22:11:33.141Z,4.04
2022-10-20T22:13:59.870Z,3.99
2022-10-20T22:16:29.521Z,3.81
2022-10-20T22:19:01.929Z,3.96
2022-10-20T22:21:29.752Z,3.76
2022-10-20T22:23:58.425Z,3.74
2022-10-20T22:26:29.785Z,3.95
2022-10-20T22:28:57.781Z,3.95
2022-10-20T22:31:25.607Z,3.93
2022-10-20T22:33:54.315Z,3.84
2022-10-20T22:36:21.334Z,3.72
2022-10-20T22:38:48.362Z,3.91
2022-10-20T22:41:15.313Z,3.93
2022-10-20T22:43:42.153Z,3.94
2022-10-20T22:46:09.022Z,4.16
2022-10-20T22:48:35.986Z,4.21
2022-10-20T22:51:06.519Z,4.24
2022-10-20T22:53:35.270Z,4.42
2022-10-20T22:56:15.726Z,4.33
2022-10-20T22:58:42.773Z,4.42
2022-10-20T23:01:11.885Z,4.56
2022-10-20T23:03:39.376Z,4.48
2022-10-20T23:06:17.064Z,4.48
2022-10-20T23:08:47.017Z,4.63
2022-10-20T23:11:14.837Z,4.26
2022-10-20T23:13:41.681Z,4.07
2022-10-20T23:16:09.049Z,4.18
2022-10-20T23:18:35.833Z,3.95
2022-10-20T23:21:04.921Z,4.09
2022-10-20T23:23:32.753Z,4.11
2022-10-20T23:26:02.221Z,3.86
2022-10-20T23:28:31.213Z,4.02
2022-10-20T23:31:15.348Z,3.91
2022-10-20T23:33:43.628Z,3.70
2022-10-20T23:36:12.113Z,3.94
2022-10-20T23:38:39.023Z,3.85
2022-10-20T23:41:06.383Z,4.02
2022-10-20T23:43:33.447Z,4.28
2022-10-20T23:46:02.851Z,4.32
2022-10-20T23:48:29.627Z,4.41
2022-10-20T23:50:58.787Z,4.63
2022-10-20T23:53:26.308Z,4.60
2022-10-20T23:55:55.996Z,4.84
2022-10-20T23:58:24.000Z,4.99
